createdAt,value
2019-01-16T00:01:15.787Z,3.32
2019-01-16T00:03:43.539Z,3.31
2019-01-16T00:06:14.051Z,3.32
2019-01-16T00:08:47.767Z,3.34
2019-01-16T00:11:18.687Z,3.33
2019-01-16T00:13:58.582Z,3.35
2019-01-16T00:16:26.313Z,3.33
2019-01-16T00:18:57.095Z,3.35
2019-01-16T00:21:36.949Z,3.37
2019-01-16T00:24:17.040Z,3.38
2019-01-16T00:26:47.806Z,3.38
2019-01-16T00:29:18.465Z,3.37
2019-01-16T00:31:46.186Z,3.36
2019-01-16T00:34:13.903Z,3.38
2019-01-16T00:36:41.656Z,3.40
2019-01-16T00:39:09.392Z,3.45
2019-01-16T00:41:37.125Z,3.42
2019-01-16T00:44:05.257Z,3.43
2019-01-16T00:46:41.823Z,3.42
2019-01-16T00:49:21.482Z,3.40
2019-01-16T00:51:52.233Z,3.40
2019-01-16T00:54:25.753Z,3.41
2019-01-16T00:56:59.570Z,3.41
2019-01-16T00:59:33.377Z,3.41
2019-01-16T01:02:01.149Z,3.38
2019-01-16T01:04:28.875Z,3.39
2019-01-16T01:07:02.778Z,3.39
2019-01-16T01:09:33.505Z,3.37
2019-01-16T01:12:01.239Z,3.39
2019-01-16T01:14:32.007Z,3.38
2019-01-16T01:17:02.807Z,3.37
2019-01-16T01:19:30.550Z,3.37
2019-01-16T01:22:04.083Z,3.37
2019-01-16T01:24:48.814Z,3.37
2019-01-16T01:27:33.252Z,3.37
2019-01-16T01:30:07.125Z,3.37
2019-01-16T01:32:44.217Z,3.36
2019-01-16T01:35:21.053Z,3.39
2019-01-16T01:38:05.411Z,3.35
2019-01-16T01:40:45.239Z,3.36
2019-01-16T01:43:15.606Z,3.36
2019-01-16T01:45:43.412Z,3.34
2019-01-16T01:48:23.026Z,3.34
2019-01-16T01:51:03.310Z,3.33
2019-01-16T01:53:31.053Z,3.32
2019-01-16T01:56:04.943Z,3.33
2019-01-16T01:58:32.673Z,3.33
2019-01-16T02:01:00.398Z,3.33
2019-01-16T02:03:30.937Z,3.35
2019-01-16T02:06:13.722Z,3.35
2019-01-16T02:08:56.476Z,3.33
2019-01-16T02:11:30.231Z,3.32
2019-01-16T02:14:01.008Z,3.32
2019-01-16T02:16:28.762Z,3.33
2019-01-16T02:19:02.112Z,3.33
2019-01-16T02:21:32.710Z,3.32
2019-01-16T02:24:17.967Z,3.31
2019-01-16T02:26:45.787Z,3.31
2019-01-16T02:29:25.885Z,3.29
2019-01-16T02:31:56.330Z,3.28
2019-01-16T02:34:24.076Z,3.28
2019-01-16T02:36:54.637Z,3.26
2019-01-16T02:39:22.358Z,3.31
2019-01-16T02:41:52.930Z,3.26
2019-01-16T02:44:23.438Z,3.31
2019-01-16T02:46:51.175Z,3.34
2019-01-16T02:49:21.826Z,3.33
2019-01-16T02:51:52.317Z,3.23
2019-01-16T02:54:22.562Z,3.30
2019-01-16T02:57:05.385Z,3.33
2019-01-16T02:59:45.211Z,3.32
2019-01-16T03:02:21.545Z,3.30
2019-01-16T03:04:49.482Z,3.32
2019-01-16T03:07:23.478Z,3.33
2019-01-16T03:09:53.994Z,3.35
2019-01-16T03:12:38.360Z,3.29
2019-01-16T03:15:11.630Z,3.29
2019-01-16T03:17:55.934Z,3.28
2019-01-16T03:20:40.230Z,3.24
2019-01-16T03:23:20.021Z,3.25
2019-01-16T03:25:51.013Z,3.24
2019-01-16T03:28:35.038Z,3.25
2019-01-16T03:31:05.580Z,3.24
2019-01-16T03:33:49.721Z,3.23
2019-01-16T03:36:17.582Z,3.21
2019-01-16T03:38:45.328Z,3.17
2019-01-16T03:41:13.065Z,3.18
2019-01-16T03:43:40.944Z,3.17
2019-01-16T03:46:11.430Z,3.15
2019-01-16T03:48:39.171Z,3.14
2019-01-16T03:51:09.681Z,3.11
2019-01-16T03:53:40.306Z,3.15
2019-01-16T03:56:11.073Z,3.16
2019-01-16T03:58:41.583Z,3.16
2019-01-16T04:01:27.665Z,3.17
2019-01-16T04:03:55.403Z,3.20
2019-01-16T04:06:29.424Z,3.21
2019-01-16T04:09:03.055Z,3.23
2019-01-16T04:11:30.791Z,3.25
2019-01-16T04:14:15.643Z,3.24
2019-01-16T04:16:49.174Z,3.25
2019-01-16T04:19:33.625Z,3.25
2019-01-16T04:22:01.345Z,3.24
2019-01-16T04:24:45.711Z,3.18
2019-01-16T04:27:22.538Z,3.16
2019-01-16T04:29:50.294Z,3.07
2019-01-16T04:32:24.085Z,3.06
2019-01-16T04:35:00.669Z,3.07
2019-01-16T04:37:31.199Z,3.06
2019-01-16T04:40:14.358Z,3.01
2019-01-16T04:42:42.073Z,3.06
2019-01-16T04:45:26.711Z,3.04
2019-01-16T04:48:06.387Z,3.01
2019-01-16T04:50:51.146Z,3.09
2019-01-16T04:53:18.897Z,3.10
2019-01-16T04:55:52.463Z,3.10
2019-01-16T04:58:32.445Z,3.13
2019-01-16T05:01:15.271Z,3.12
2019-01-16T05:03:43.001Z,3.15
2019-01-16T05:06:13.795Z,3.16
2019-01-16T05:08:41.548Z,3.18
2019-01-16T05:11:18.367Z,3.21
2019-01-16T05:13:48.852Z,3.17
2019-01-16T05:16:22.667Z,3.16
2019-01-16T05:19:08.577Z,3.20
2019-01-16T05:21:54.741Z,3.24
2019-01-16T05:24:22.461Z,3.21
2019-01-16T05:26:50.211Z,3.16
2019-01-16T05:29:17.942Z,3.16
2019-01-16T05:31:45.704Z,3.21
2019-01-16T05:34:13.492Z,3.21
2019-01-16T05:36:56.407Z,3.23
2019-01-16T05:39:39.521Z,3.25
2019-01-16T05:42:16.381Z,3.23
2019-01-16T05:44:50.137Z,3.22
2019-01-16T05:47:17.889Z,3.20
2019-01-16T05:49:46.814Z,3.21
2019-01-16T05:52:17.692Z,3.20
2019-01-16T05:54:57.422Z,3.14
2019-01-16T05:57:25.183Z,3.15
2019-01-16T05:59:55.678Z,3.15
2019-01-16T06:02:29.203Z,3.13
2019-01-16T06:05:02.816Z,3.15
2019-01-16T06:07:39.768Z,3.14
2019-01-16T06:10:27.772Z,3.15
2019-01-16T06:13:12.215Z,3.14
2019-01-16T06:15:45.735Z,3.14
2019-01-16T06:18:13.516Z,3.14
2019-01-16T06:20:47.059Z,3.14
2019-01-16T06:23:29.909Z,3.15
2019-01-16T06:26:03.507Z,3.13
2019-01-16T06:28:31.272Z,3.12
2019-01-16T06:31:02.021Z,3.12
2019-01-16T06:33:35.763Z,3.13
2019-01-16T06:36:06.283Z,3.14
2019-01-16T06:38:34.012Z,3.12
2019-01-16T06:41:01.866Z,3.13
2019-01-16T06:43:35.684Z,3.11
2019-01-16T06:46:03.436Z,3.09
2019-01-16T06:48:46.558Z,3.11
2019-01-16T06:51:14.335Z,3.09
2019-01-16T06:53:54.304Z,3.05
2019-01-16T06:56:22.067Z,3.02
2019-01-16T06:58:58.727Z,3.01
2019-01-16T07:01:35.130Z,3.04
2019-01-16T07:04:02.991Z,3.03
2019-01-16T07:06:36.752Z,3.04
2019-01-16T07:09:07.886Z,3.00
2019-01-16T07:11:35.622Z,3.03
2019-01-16T07:14:03.508Z,3.04
2019-01-16T07:16:34.311Z,3.03
2019-01-16T07:19:14.152Z,3.02
2019-01-16T07:21:42.013Z,3.02
2019-01-16T07:24:12.771Z,3.03
2019-01-16T07:26:40.492Z,3.01
2019-01-16T07:29:08.218Z,3.03
2019-01-16T07:31:48.057Z,3.06
2019-01-16T07:34:27.525Z,3.04
2019-01-16T07:37:07.025Z,3.01
2019-01-16T07:39:37.761Z,3.01
2019-01-16T07:42:20.647Z,3.08
2019-01-16T07:45:06.388Z,3.07
2019-01-16T07:47:39.949Z,3.07
2019-01-16T07:50:17.709Z,3.07
2019-01-16T07:52:51.832Z,3.10
2019-01-16T07:55:36.070Z,3.09
2019-01-16T07:58:06.605Z,3.10
2019-01-16T08:00:37.156Z,3.11
2019-01-16T08:03:14.266Z,3.09
2019-01-16T08:05:58.525Z,3.12
2019-01-16T08:08:29.038Z,3.13
2019-01-16T08:11:13.300Z,3.16
2019-01-16T08:13:57.640Z,3.14
2019-01-16T08:16:42.171Z,3.16
2019-01-16T08:19:26.393Z,3.16
2019-01-16T08:22:10.671Z,3.22
2019-01-16T08:24:47.357Z,3.23
2019-01-16T08:27:20.979Z,3.28
2019-01-16T08:29:51.774Z,3.31
2019-01-16T08:32:31.487Z,3.37
2019-01-16T08:35:11.611Z,3.40
2019-01-16T08:37:42.182Z,3.47
2019-01-16T08:40:13.781Z,3.36
2019-01-16T08:42:41.522Z,3.31
2019-01-16T08:45:10.480Z,3.36
2019-01-16T08:47:47.291Z,3.37
2019-01-16T08:50:15.235Z,3.38
2019-01-16T08:52:48.585Z,3.46
2019-01-16T08:55:25.226Z,3.49
2019-01-16T08:58:09.730Z,3.52
2019-01-16T09:00:54.079Z,3.47
2019-01-16T09:03:22.152Z,3.50
2019-01-16T09:06:06.788Z,3.49
2019-01-16T09:08:51.192Z,3.52
2019-01-16T09:11:28.090Z,3.46
2019-01-16T09:14:02.114Z,2.97
2019-01-16T09:16:29.861Z,3.41
2019-01-16T09:19:03.171Z,3.42
2019-01-16T09:21:47.706Z,3.42
2019-01-16T09:24:15.449Z,3.43
2019-01-16T09:27:00.308Z,3.48
2019-01-16T09:29:33.832Z,3.54
2019-01-16T09:32:18.451Z,3.57
2019-01-16T09:34:52.208Z,3.55
2019-01-16T09:37:38.092Z,3.51
2019-01-16T09:40:24.115Z,3.50
2019-01-16T09:43:01.169Z,3.47
2019-01-16T09:45:45.523Z,3.44
2019-01-16T09:48:19.061Z,3.44
2019-01-16T09:50:48.034Z,3.49
2019-01-16T09:53:19.066Z,3.47
2019-01-16T09:55:58.981Z,3.46
2019-01-16T09:58:26.721Z,3.51
2019-01-16T10:01:06.694Z,3.53
2019-01-16T10:03:49.521Z,3.47
2019-01-16T10:06:23.113Z,3.55
2019-01-16T10:08:50.876Z,3.62
2019-01-16T10:11:30.255Z,3.71
2019-01-16T10:13:58.118Z,3.62
2019-01-16T10:16:44.263Z,3.56
2019-01-16T10:19:24.249Z,3.65
2019-01-16T10:21:57.960Z,3.66
2019-01-16T10:24:26.020Z,3.70
2019-01-16T10:27:10.730Z,3.77
2019-01-16T10:29:55.162Z,3.79
2019-01-16T10:32:22.898Z,3.81
2019-01-16T10:34:50.665Z,3.85
2019-01-16T10:37:35.327Z,3.84
2019-01-16T10:40:18.270Z,3.80
2019-01-16T10:42:52.023Z,3.72
2019-01-16T10:45:22.644Z,3.71
2019-01-16T10:47:50.378Z,3.76
2019-01-16T10:50:24.430Z,3.86
2019-01-16T10:52:55.406Z,3.89
2019-01-16T10:55:26.226Z,3.79
2019-01-16T10:57:56.733Z,3.89
2019-01-16T11:00:24.470Z,3.86
2019-01-16T11:02:58.021Z,3.81
2019-01-16T11:05:34.963Z,3.81
2019-01-16T11:08:11.899Z,3.80
2019-01-16T11:10:39.645Z,3.83
2019-01-16T11:13:07.404Z,3.74
2019-01-16T11:15:47.268Z,3.79
2019-01-16T11:18:20.817Z,3.75
2019-01-16T11:21:10.916Z,3.77
2019-01-16T11:23:43.308Z,3.82
2019-01-16T11:26:26.152Z,3.80
2019-01-16T11:28:59.815Z,3.85
2019-01-16T11:31:42.560Z,3.86
2019-01-16T11:34:27.179Z,3.90
2019-01-16T11:37:00.960Z,3.86
2019-01-16T11:39:37.966Z,3.86
2019-01-16T11:42:08.618Z,3.86
2019-01-16T11:44:36.371Z,3.90
2019-01-16T11:47:16.196Z,3.95
2019-01-16T11:49:43.925Z,3.96
2019-01-16T11:52:11.664Z,3.99
2019-01-16T11:57:41.981Z,4.10
2019-01-16T12:00:31.617Z,4.09
2019-01-16T12:03:02.424Z,4.15
2019-01-16T12:05:39.165Z,4.15
2019-01-16T12:08:07.121Z,4.08
2019-01-16T12:10:37.854Z,4.12
2019-01-16T12:13:11.605Z,4.20
2019-01-16T12:15:39.362Z,4.22
2019-01-16T12:18:07.186Z,4.34
2019-01-16T12:20:51.200Z,4.41
2019-01-16T12:23:30.807Z,4.62
2019-01-16T12:25:58.596Z,4.70
2019-01-16T12:28:35.447Z,4.71
2019-01-16T12:31:19.982Z,4.68
2019-01-16T12:33:59.820Z,4.69
2019-01-16T12:36:27.583Z,4.72
2019-01-16T12:38:58.144Z,4.85
2019-01-16T12:41:31.893Z,4.85
2019-01-16T12:43:59.641Z,4.87
2019-01-16T12:46:27.475Z,4.91
2019-01-16T12:49:12.115Z,4.87
2019-01-16T12:51:45.674Z,4.94
2019-01-16T12:54:32.074Z,4.97
2019-01-16T12:57:02.622Z,4.97
2019-01-16T12:59:35.919Z,5.10
2019-01-16T13:02:10.335Z,5.00
2019-01-16T13:04:38.079Z,4.97
2019-01-16T13:07:20.898Z,5.05
2019-01-16T13:10:03.786Z,5.05
2019-01-16T13:12:31.529Z,5.21
2019-01-16T13:15:05.475Z,5.29
2019-01-16T13:17:49.769Z,5.34
2019-01-16T13:20:17.523Z,5.32
2019-01-16T13:22:57.562Z,5.51
2019-01-16T13:25:25.404Z,5.78
2019-01-16T13:28:05.260Z,5.90
2019-01-16T13:30:44.815Z,6.01
2019-01-16T13:33:18.679Z,5.90
2019-01-16T13:36:03.388Z,6.05
2019-01-16T13:38:31.219Z,5.84
2019-01-16T13:41:04.785Z,6.10
2019-01-16T13:43:50.710Z,6.15
2019-01-16T13:46:33.595Z,6.03
2019-01-16T13:49:01.321Z,5.88
2019-01-16T13:51:31.882Z,5.85
2019-01-16T13:54:16.326Z,5.89
2019-01-16T13:57:01.023Z,6.00
2019-01-16T13:59:31.805Z,6.04
2019-01-16T14:01:59.537Z,6.21
2019-01-16T14:04:30.304Z,6.38
2019-01-16T14:07:01.051Z,6.48
2019-01-16T14:09:28.800Z,6.56
2019-01-16T14:11:59.353Z,6.21
2019-01-16T14:17:23.631Z,5.63
2019-01-16T14:19:57.180Z,5.53
2019-01-16T14:22:27.734Z,5.50
2019-01-16T14:24:55.481Z,5.62
2019-01-16T14:27:25.732Z,5.52
2019-01-16T14:29:53.485Z,5.34
2019-01-16T14:32:33.480Z,5.23
2019-01-16T14:35:13.470Z,5.15
2019-01-16T14:37:56.095Z,4.94
2019-01-16T14:40:23.944Z,4.89
2019-01-16T14:42:54.469Z,4.88
2019-01-16T14:45:34.240Z,4.87
2019-01-16T14:48:07.811Z,4.82
2019-01-16T14:50:41.569Z,4.82
2019-01-16T14:53:11.847Z,4.81
2019-01-16T14:55:39.672Z,4.73
2019-01-16T14:58:24.333Z,4.72
2019-01-16T15:00:52.587Z,4.64
2019-01-16T15:03:27.859Z,4.66
2019-01-16T15:05:59.526Z,4.66
2019-01-16T15:08:45.905Z,4.65
2019-01-16T15:11:31.757Z,4.65
2019-01-16T15:13:59.528Z,4.61
2019-01-16T15:16:36.292Z,4.45
2019-01-16T15:19:10.033Z,4.45
2019-01-16T15:21:43.787Z,4.43
2019-01-16T15:24:11.648Z,4.53
2019-01-16T15:26:45.467Z,4.49
2019-01-16T15:29:15.971Z,4.47
2019-01-16T15:31:49.479Z,4.42
2019-01-16T15:34:23.306Z,4.34
2019-01-16T15:36:57.029Z,4.31
2019-01-16T15:39:39.680Z,4.33
2019-01-16T15:42:07.446Z,4.23
2019-01-16T15:44:35.175Z,4.29
2019-01-16T15:47:05.727Z,4.12
2019-01-16T15:49:50.182Z,4.16
2019-01-16T15:52:20.744Z,4.16
2019-01-16T15:55:05.394Z,4.06
2019-01-16T15:57:33.157Z,4.06
2019-01-16T16:00:00.899Z,4.06
2019-01-16T16:02:34.464Z,4.00
2019-01-16T16:05:18.779Z,3.96
2019-01-16T16:07:52.477Z,3.89
2019-01-16T16:10:23.024Z,3.85
2019-01-16T16:12:53.540Z,3.85
2019-01-16T16:15:27.267Z,3.79
2019-01-16T16:18:01.019Z,3.72
2019-01-16T16:20:45.396Z,3.60
2019-01-16T16:23:24.993Z,3.45
2019-01-16T16:25:55.238Z,3.58
2019-01-16T16:28:26.218Z,3.69
2019-01-16T16:30:59.725Z,3.64
2019-01-16T16:33:44.298Z,3.51
2019-01-16T16:36:18.124Z,3.68
2019-01-16T16:38:52.109Z,3.38
2019-01-16T16:41:36.752Z,3.26
2019-01-16T16:44:07.793Z,3.26
2019-01-16T16:46:44.920Z,3.17
2019-01-16T16:49:27.765Z,3.11
2019-01-16T16:52:10.599Z,3.20
2019-01-16T16:54:50.450Z,3.08
2019-01-16T16:57:18.194Z,3.02
2019-01-16T16:59:51.981Z,3.14
2019-01-16T17:02:28.826Z,3.14
2019-01-16T17:05:05.489Z,3.01
2019-01-16T17:07:33.222Z,2.85
2019-01-16T17:10:00.976Z,2.83
2019-01-16T17:12:37.342Z,2.75
2019-01-16T17:15:14.653Z,2.75
2019-01-16T17:17:59.327Z,2.79
2019-01-16T17:20:43.789Z,2.73
2019-01-16T17:23:28.225Z,2.76
2019-01-16T17:25:58.857Z,2.69
2019-01-16T17:28:29.634Z,2.74
2019-01-16T17:31:12.753Z,2.68
2019-01-16T17:33:52.578Z,2.65
2019-01-16T17:36:36.773Z,2.57
2019-01-16T17:39:07.740Z,2.49
2019-01-16T17:41:47.399Z,2.43
2019-01-16T17:44:17.953Z,2.35
2019-01-16T17:46:45.669Z,2.34
2019-01-16T17:49:19.478Z,2.28
2019-01-16T17:51:47.231Z,2.33
2019-01-16T17:54:17.950Z,2.28
2019-01-16T17:57:02.499Z,2.28
2019-01-16T17:59:33.128Z,2.24
2019-01-16T18:02:09.586Z,2.14
2019-01-16T18:04:40.127Z,2.08
2019-01-16T18:07:10.662Z,1.97
2019-01-16T18:09:56.539Z,1.92
2019-01-16T18:12:29.800Z,1.88
2019-01-16T18:15:06.445Z,1.95
2019-01-16T18:17:43.013Z,1.88
2019-01-16T18:20:25.045Z,1.88
2019-01-16T18:22:58.370Z,1.91
2019-01-16T18:25:28.887Z,1.93
2019-01-16T18:27:56.625Z,1.84
2019-01-16T18:30:30.470Z,1.81
2019-01-16T18:32:58.197Z,1.85
2019-01-16T18:35:25.952Z,1.77
2019-01-16T18:37:53.705Z,1.75
2019-01-16T18:40:36.857Z,1.85
2019-01-16T18:43:07.406Z,1.80
2019-01-16T18:45:44.222Z,1.82
2019-01-16T18:48:14.812Z,1.93
2019-01-16T18:50:45.062Z,1.98
2019-01-16T18:53:24.705Z,1.99
2019-01-16T18:55:55.243Z,1.91
2019-01-16T18:58:22.967Z,1.75
2019-01-16T19:01:07.637Z,1.71
2019-01-16T19:03:38.405Z,1.73
2019-01-16T19:06:09.196Z,1.68
2019-01-16T19:08:53.557Z,1.69
2019-01-16T19:11:24.090Z,1.69
2019-01-16T19:13:57.605Z,1.65
2019-01-16T19:16:25.446Z,1.55
2019-01-16T19:18:55.927Z,1.49
2019-01-16T19:21:23.675Z,1.46
2019-01-16T19:23:57.618Z,1.36
2019-01-16T19:26:42.129Z,1.33
2019-01-16T19:29:12.632Z,1.38
2019-01-16T19:31:43.171Z,1.40
2019-01-16T19:34:28.850Z,1.45
2019-01-16T19:36:59.664Z,1.44
2019-01-16T19:39:44.242Z,1.37
2019-01-16T19:42:27.029Z,1.38
2019-01-16T19:45:11.569Z,1.31
2019-01-16T19:47:42.084Z,1.37
2019-01-16T19:50:25.705Z,1.37
2019-01-16T19:53:10.032Z,1.26
2019-01-16T19:55:49.795Z,1.19
2019-01-16T19:58:17.641Z,1.16
2019-01-16T20:00:51.402Z,0.77
2019-01-16T20:03:34.291Z,1.17
2019-01-16T20:06:04.999Z,1.24
2019-01-16T20:08:35.739Z,1.14
2019-01-16T20:11:12.664Z,1.14
2019-01-16T20:13:46.302Z,1.13
2019-01-16T20:16:14.133Z,1.17
2019-01-16T20:18:47.705Z,1.13
2019-01-16T20:21:30.301Z,1.11
2019-01-16T20:24:07.323Z,1.08
2019-01-16T20:26:44.302Z,1.06
2019-01-16T20:29:28.604Z,1.07
2019-01-16T20:32:12.954Z,0.98
2019-01-16T20:34:57.331Z,1.00
2019-01-16T20:37:25.177Z,1.02
2019-01-16T20:39:58.902Z,0.94
2019-01-16T20:42:26.782Z,0.94
2019-01-16T20:45:06.529Z,0.93
2019-01-16T20:47:37.035Z,0.87
2019-01-16T20:50:16.807Z,0.91
2019-01-16T20:52:44.637Z,0.93
2019-01-16T20:55:12.805Z,0.97
2019-01-16T20:57:52.472Z,0.92
2019-01-16T21:00:20.309Z,0.94
2019-01-16T21:03:06.155Z,0.89
2019-01-16T21:05:46.275Z,0.81
2019-01-16T21:08:16.778Z,0.67
2019-01-16T21:10:44.571Z,0.66
2019-01-16T21:13:12.316Z,0.73
2019-01-16T21:15:52.099Z,0.77
2019-01-16T21:18:25.383Z,0.99
2019-01-16T21:20:56.256Z,1.05
2019-01-16T21:23:24.047Z,1.18
2019-01-16T21:26:00.822Z,1.15
2019-01-16T21:28:28.561Z,1.14
2019-01-16T21:31:02.621Z,1.01
2019-01-16T21:33:42.445Z,0.90
2019-01-16T21:36:16.456Z,0.88
2019-01-16T21:39:01.111Z,0.91
2019-01-16T21:41:34.695Z,0.85
2019-01-16T21:44:02.410Z,0.79
2019-01-16T21:46:35.687Z,0.69
2019-01-16T21:49:12.062Z,0.67
2019-01-16T21:51:58.190Z,0.63
2019-01-16T21:54:31.835Z,0.54
2019-01-16T21:57:16.352Z,0.44
2019-01-16T21:59:44.099Z,0.33
2019-01-16T22:02:17.876Z,0.42
2019-01-16T22:05:00.991Z,0.28
2019-01-16T22:07:31.540Z,0.21
2019-01-16T22:10:16.102Z,0.05
2019-01-16T22:12:43.855Z,0.01
2019-01-16T22:15:31.739Z,-0.02
2019-01-16T22:18:11.559Z,0.02
2019-01-16T22:20:39.288Z,-0.10
2019-01-16T22:23:19.043Z,-0.12
2019-01-16T22:25:46.761Z,-0.18
2019-01-16T22:28:31.057Z,-0.23
2019-01-16T22:31:06.647Z,-0.23
2019-01-16T22:33:40.141Z,-0.28
2019-01-16T22:36:10.889Z,-0.34
2019-01-16T22:38:51.133Z,-0.39
2019-01-16T22:41:21.845Z,-0.40
2019-01-16T22:43:52.248Z,-0.48
2019-01-16T22:46:28.887Z,-0.40
2019-01-16T22:49:08.679Z,-0.55
2019-01-16T22:51:36.457Z,-0.56
2019-01-16T22:54:13.558Z,-0.62
2019-01-16T22:56:53.173Z,-0.69
2019-01-16T22:59:37.598Z,-0.56
2019-01-16T23:02:17.480Z,-0.62
2019-01-16T23:04:48.070Z,-0.66
2019-01-16T23:07:18.561Z,-0.66
2019-01-16T23:09:46.392Z,-0.71
2019-01-16T23:12:31.160Z,-0.74
2019-01-16T23:15:07.729Z,-0.68
2019-01-16T23:17:38.246Z,-0.72
2019-01-16T23:20:11.174Z,-0.76
2019-01-16T23:22:55.328Z,-0.81
2019-01-16T23:25:39.608Z,-0.80
2019-01-16T23:28:07.335Z,-0.72
2019-01-16T23:30:35.077Z,-0.80
2019-01-16T23:33:02.883Z,-0.84
2019-01-16T23:35:36.455Z,-0.88
2019-01-16T23:38:04.273Z,-0.98
2019-01-16T23:40:31.993Z,-1.00
2019-01-16T23:43:12.010Z,-0.96
2019-01-16T23:45:39.762Z,-0.94
2019-01-16T23:48:16.454Z,-0.94
2019-01-16T23:50:56.235Z,-0.90
2019-01-16T23:53:40.863Z,-0.96
2019-01-16T23:56:14.411Z,-0.91
2019-01-16T23:58:51.298Z,-0.92
